sensor_id;sensor_type;location;lat;lon;timestamp;pressure;altitude;pressure_sealevel;temperature;humidity
29315;BME280;16320;53.954;9.506;2023-06-26T00:02:57;101113.06;;;20.40;100.00
29315;BME280;16320;53.954;9.506;2023-06-26T00:06:01;101109.56;;;20.40;100.00
29315;BME280;16320;53.954;9.506;2023-06-26T00:09:05;101095.25;;;20.41;100.00
29315;BME280;16320;53.954;9.506;2023-06-26T00:12:10;101095.25;;;20.41;100.00
29315;BME280;16320;53.954;9.506;2023-06-26T00:15:15;101097.19;;;20.39;100.00
29315;BME280;16320;53.954;9.506;2023-06-26T00:18:20;101093.25;;;20.33;100.00
29315;BME280;16320;53.954;9.506;2023-06-26T00:21:25;101096.03;;;20.32;100.00
29315;BME280;16320;53.954;9.506;2023-06-26T00:24:30;101083.38;;;20.24;100.00
29315;BME280;16320;53.954;9.506;2023-06-26T00:27:34;101089.28;;;20.27;100.00
29315;BME280;16320;53.954;9.506;2023-06-26T00:30:39;101084.22;;;20.24;100.00
29315;BME280;16320;53.954;9.506;2023-06-26T00:33:44;101086.16;;;20.22;100.00
29315;BME280;16320;53.954;9.506;2023-06-26T00:36:49;101088.13;;;20.20;100.00
29315;BME280;16320;53.954;9.506;2023-06-26T00:39:53;101090.22;;;20.17;100.00
29315;BME280;16320;53.954;9.506;2023-06-26T00:42:58;101084.16;;;20.15;100.00
29315;BME280;16320;53.954;9.506;2023-06-26T00:46:02;101079.81;;;20.14;100.00
29315;BME280;16320;53.954;9.506;2023-06-26T00:49:06;101078.69;;;20.16;100.00
29315;BME280;16320;53.954;9.506;2023-06-26T00:52:11;101076.03;;;20.16;100.00
29315;BME280;16320;53.954;9.506;2023-06-26T00:55:15;101071.69;;;20.15;100.00
29315;BME280;16320;53.954;9.506;2023-06-26T00:58:23;101075.75;;;20.19;100.00
29315;BME280;16320;53.954;9.506;2023-06-26T01:01:28;101067.59;;;20.11;100.00
29315;BME280;16320;53.954;9.506;2023-06-26T01:04:33;101063.69;;;20.15;100.00
29315;BME280;16320;53.954;9.506;2023-06-26T01:07:38;101065.81;;;20.21;100.00
29315;BME280;16320;53.954;9.506;2023-06-26T01:10:45;101062.03;;;20.24;100.00
29315;BME280;16320;53.954;9.506;2023-06-26T01:13:51;101057.56;;;20.24;100.00
29315;BME280;16320;53.954;9.506;2023-06-26T01:16:55;101044.94;;;20.26;100.00
29315;BME280;16320;53.954;9.506;2023-06-26T01:20:06;101046.34;;;20.30;100.00
29315;BME280;16320;53.954;9.506;2023-06-26T01:23:29;101048.03;;;20.32;100.00
29315;BME280;16320;53.954;9.506;2023-06-26T01:26:36;101043.22;;;20.25;100.00
29315;BME280;16320;53.954;9.506;2023-06-26T01:29:41;101038.44;;;20.19;100.00
29315;BME280;16320;53.954;9.506;2023-06-26T01:32:48;101042.88;;;20.09;100.00
29315;BME280;16320;53.954;9.506;2023-06-26T01:35:54;101033.63;;;20.03;100.00
29315;BME280;16320;53.954;9.506;2023-06-26T01:38:58;101034.97;;;19.98;100.00
29315;BME280;16320;53.954;9.506;2023-06-26T01:42:03;101038.59;;;19.97;100.00
29315;BME280;16320;53.954;9.506;2023-06-26T01:45:35;101031.72;;;19.94;100.00
29315;BME280;16320;53.954;9.506;2023-06-26T01:48:53;101027.50;;;19.91;100.00
29315;BME280;16320;53.954;9.506;2023-06-26T01:52:21;101023.44;;;19.87;100.00
29315;BME280;16320;53.954;9.506;2023-06-26T01:55:51;101019.50;;;19.91;100.00
29315;BME280;16320;53.954;9.506;2023-06-26T01:58:57;101021.19;;;19.92;100.00
29315;BME280;16320;53.954;9.506;2023-06-26T02:02:07;101018.28;;;19.96;100.00
29315;BME280;16320;53.954;9.506;2023-06-26T02:05:13;101015.34;;;19.99;100.00
29315;BME280;16320;53.954;9.506;2023-06-26T02:08:19;101017.75;;;20.02;100.00
29315;BME280;16320;53.954;9.506;2023-06-26T02:11:24;101005.81;;;20.06;100.00
29315;BME280;16320;53.954;9.506;2023-06-26T02:14:29;101000.22;;;20.09;100.00
29315;BME280;16320;53.954;9.506;2023-06-26T02:17:33;100998.78;;;20.05;100.00
29315;BME280;16320;53.954;9.506;2023-06-26T02:20:38;100993.03;;;20.00;100.00
29315;BME280;16320;53.954;9.506;2023-06-26T02:23:43;100990.34;;;20.00;100.00
29315;BME280;16320;53.954;9.506;2023-06-26T02:26:48;100994.19;;;20.07;100.00
29315;BME280;16320;53.954;9.506;2023-06-26T02:29:53;100993.19;;;20.08;100.00
29315;BME280;16320;53.954;9.506;2023-06-26T02:32:58;100989.28;;;20.12;100.00
29315;BME280;16320;53.954;9.506;2023-06-26T02:36:02;100994.63;;;20.12;100.00
29315;BME280;16320;53.954;9.506;2023-06-26T02:39:06;100989.28;;;20.12;100.00
29315;BME280;16320;53.954;9.506;2023-06-26T02:42:11;100989.03;;;20.15;100.00
29315;BME280;16320;53.954;9.506;2023-06-26T02:45:16;100987.06;;;20.17;100.00
29315;BME280;16320;53.954;9.506;2023-06-26T02:48:20;100990.81;;;20.15;100.00
29315;BME280;16320;53.954;9.506;2023-06-26T02:51:25;100982.00;;;20.14;100.00
29315;BME280;16320;53.954;9.506;2023-06-26T02:54:29;100986.75;;;20.10;100.00
29315;BME280;16320;53.954;9.506;2023-06-26T02:57:34;100983.25;;;20.10;100.00
29315;BME280;16320;53.954;9.506;2023-06-26T03:00:39;100976.78;;;20.12;100.00
29315;BME280;16320;53.954;9.506;2023-06-26T03:03:47;100976.66;;;20.14;100.00
29315;BME280;16320;53.954;9.506;2023-06-26T03:06:52;100980.03;;;20.16;100.00
29315;BME280;16320;53.954;9.506;2023-06-26T03:09:57;100972.63;;;20.20;100.00
29315;BME280;16320;53.954;9.506;2023-06-26T03:13:01;100972.63;;;20.20;100.00
29315;BME280;16320;53.954;9.506;2023-06-26T03:16:05;100972.75;;;20.18;100.00
29315;BME280;16320;53.954;9.506;2023-06-26T03:19:10;100974.69;;;20.16;100.00
29315;BME280;16320;53.954;9.506;2023-06-26T03:22:14;100976.00;;;20.22;100.00
29315;BME280;16320;53.954;9.506;2023-06-26T03:25:19;100971.63;;;20.21;100.00
29315;BME280;16320;53.954;9.506;2023-06-26T03:28:24;100960.81;;;20.22;100.00
29315;BME280;16320;53.954;9.506;2023-06-26T03:31:28;100961.25;;;20.27;100.00
29315;BME280;16320;53.954;9.506;2023-06-26T03:34:33;100962.94;;;20.28;100.00
29315;BME280;16320;53.954;9.506;2023-06-26T03:37:38;100953.72;;;20.33;100.00
29315;BME280;16320;53.954;9.506;2023-06-26T03:40:44;100958.16;;;20.32;100.00
29315;BME280;16320;53.954;9.506;2023-06-26T03:43:49;100960.69;;;20.34;100.00
29315;BME280;16320;53.954;9.506;2023-06-26T03:46:53;100952.00;;;20.32;100.00
29315;BME280;16320;53.954;9.506;2023-06-26T03:49:58;100951.03;;;20.33;100.00
29315;BME280;16320;53.954;9.506;2023-06-26T03:53:02;100946.66;;;20.32;100.00
29315;BME280;16320;53.954;9.506;2023-06-26T03:56:07;100953.41;;;20.36;100.00
29315;BME280;16320;53.954;9.506;2023-06-26T03:59:11;100934.91;;;20.34;100.00
29315;BME280;16320;53.954;9.506;2023-06-26T04:02:15;100931.09;;;20.37;100.00
29315;BME280;16320;53.954;9.506;2023-06-26T04:05:21;100917.47;;;20.40;100.00
29315;BME280;16320;53.954;9.506;2023-06-26T04:08:25;100919.44;;;20.38;100.00
29315;BME280;16320;53.954;9.506;2023-06-26T04:11:32;100912.16;;;20.40;100.00
29315;BME280;16320;53.954;9.506;2023-06-26T04:14:36;100913.84;;;20.41;100.00
29315;BME280;16320;53.954;9.506;2023-06-26T04:17:41;100911.31;;;20.39;100.00
29315;BME280;16320;53.954;9.506;2023-06-26T04:21:11;100914.25;;;20.36;100.00
29315;BME280;16320;53.954;9.506;2023-06-26T04:24:16;100914.53;;;20.43;100.00
29315;BME280;16320;53.954;9.506;2023-06-26T04:27:21;100909.06;;;20.44;100.00
29315;BME280;16320;53.954;9.506;2023-06-26T04:30:26;100910.59;;;20.47;100.00
29315;BME280;16320;53.954;9.506;2023-06-26T04:33:30;100896.97;;;20.50;100.00
29315;BME280;16320;53.954;9.506;2023-06-26T04:36:35;100902.31;;;20.50;100.00
29315;BME280;16320;53.954;9.506;2023-06-26T04:39:43;100892.78;;;20.57;100.00
29315;BME280;16320;53.954;9.506;2023-06-26T04:42:47;100885.19;;;20.62;100.00
29315;BME280;16320;53.954;9.506;2023-06-26T04:45:52;100890.44;;;20.64;100.00
29315;BME280;16320;53.954;9.506;2023-06-26T04:48:58;100878.59;;;20.66;100.00
29315;BME280;16320;53.954;9.506;2023-06-26T04:52:03;100867.66;;;20.70;100.00
29315;BME280;16320;53.954;9.506;2023-06-26T04:55:08;100873.84;;;20.70;100.00
29315;BME280;16320;53.954;9.506;2023-06-26T04:58:12;100869.22;;;20.72;100.00
29315;BME280;16320;53.954;9.506;2023-06-26T05:01:17;100861.06;;;20.74;100.00
29315;BME280;16320;53.954;9.506;2023-06-26T05:04:21;100862.44;;;20.78;100.00
29315;BME280;16320;53.954;9.506;2023-06-26T05:07:27;100865.56;;;20.83;100.00
29315;BME280;16320;53.954;9.506;2023-06-26T05:10:31;100852.34;;;20.91;100.00
29315;BME280;16320;53.954;9.506;2023-06-26T05:13:36;100852.88;;;20.95;100.00
29315;BME280;16320;53.954;9.506;2023-06-26T05:16:40;100840.22;;;20.97;100.00
29315;BME280;16320;53.954;9.506;2023-06-26T05:19:44;100831.50;;;21.05;100.00
29315;BME280;16320;53.954;9.506;2023-06-26T05:22:49;100825.88;;;21.08;100.00
29315;BME280;16320;53.954;9.506;2023-06-26T05:25:54;100827.25;;;21.12;100.00
29315;BME280;16320;53.954;9.506;2023-06-26T05:29:01;100824.97;;;21.17;100.00
29315;BME280;16320;53.954;9.506;2023-06-26T05:32:06;100818.22;;;21.23;100.00
29315;BME280;16320;53.954;9.506;2023-06-26T05:35:11;100820.16;;;21.30;100.00
29315;BME280;16320;53.954;9.506;2023-06-26T05:38:17;100803.53;;;21.36;100.00
29315;BME280;16320;53.954;9.506;2023-06-26T05:41:22;100795.63;;;21.45;100.00
29315;BME280;16320;53.954;9.506;2023-06-26T05:44:27;100791.94;;;21.55;100.00
29315;BME280;16320;53.954;9.506;2023-06-26T05:47:31;100793.03;;;21.63;100.00
29315;BME280;16320;53.954;9.506;2023-06-26T05:50:36;100795.50;;;21.74;100.00
29315;BME280;16320;53.954;9.506;2023-06-26T05:53:41;100779.69;;;21.81;100.00
29315;BME280;16320;53.954;9.506;2023-06-26T05:56:48;100773.97;;;21.93;100.00
29315;BME280;16320;53.954;9.506;2023-06-26T05:59:53;100763.19;;;22.03;100.00
29315;BME280;16320;53.954;9.506;2023-06-26T06:02:58;100755.84;;;22.05;100.00
29315;BME280;16320;53.954;9.506;2023-06-26T06:06:03;100762.41;;;22.11;100.00
29315;BME280;16320;53.954;9.506;2023-06-26T06:09:07;100758.00;;;22.20;100.00
29315;BME280;16320;53.954;9.506;2023-06-26T06:12:12;100750.03;;;22.28;100.00
29315;BME280;16320;53.954;9.506;2023-06-26T06:15:16;100740.78;;;22.40;100.00
29315;BME280;16320;53.954;9.506;2023-06-26T06:18:20;100733.50;;;22.51;100.00
29315;BME280;16320;53.954;9.506;2023-06-26T06:21:25;100739.91;;;22.58;100.00
29315;BME280;16320;53.954;9.506;2023-06-26T06:24:30;100741.78;;;22.65;100.00
29315;BME280;16320;53.954;9.506;2023-06-26T06:27:34;100732.44;;;22.70;100.00
29315;BME280;16320;53.954;9.506;2023-06-26T06:30:38;100724.28;;;22.79;100.00
29315;BME280;16320;53.954;9.506;2023-06-26T06:33:49;100719.00;;;22.88;100.00
29315;BME280;16320;53.954;9.506;2023-06-26T06:36:54;100711.00;;;22.96;100.00
29315;BME280;16320;53.954;9.506;2023-06-26T06:39:58;100713.44;;;23.07;100.00
29315;BME280;16320;53.954;9.506;2023-06-26T06:43:03;100689.50;;;23.14;100.00
29315;BME280;16320;53.954;9.506;2023-06-26T06:46:08;100683.84;;;23.25;100.00
29315;BME280;16320;53.954;9.506;2023-06-26T06:49:13;100688.38;;;23.33;100.00
29315;BME280;16320;53.954;9.506;2023-06-26T06:52:18;100680.00;;;23.36;100.00
29315;BME280;16320;53.954;9.506;2023-06-26T06:55:22;100683.03;;;23.41;100.00
29315;BME280;16320;53.954;9.506;2023-06-26T06:58:27;100683.41;;;23.46;100.00
29315;BME280;16320;53.954;9.506;2023-06-26T07:01:32;100696.28;;;23.59;100.00
29315;BME280;16320;53.954;9.506;2023-06-26T07:04:36;100677.03;;;23.55;100.00
29315;BME280;16320;53.954;9.506;2023-06-26T07:07:41;100680.06;;;23.69;100.00
29315;BME280;16320;53.954;9.506;2023-06-26T07:10:45;100680.75;;;23.71;100.00
29315;BME280;16320;53.954;9.506;2023-06-26T07:13:50;100678.72;;;23.81;100.00
29315;BME280;16320;53.954;9.506;2023-06-26T07:16:55;100676.41;;;23.86;100.00
29315;BME280;16320;53.954;9.506;2023-06-26T07:20:01;100673.72;;;23.94;100.00
29315;BME280;16320;53.954;9.506;2023-06-26T07:23:08;100685.16;;;23.97;100.00
29315;BME280;16320;53.954;9.506;2023-06-26T07:26:14;100690.50;;;24.13;100.00
29315;BME280;16320;53.954;9.506;2023-06-26T07:29:20;100673.03;;;24.25;100.00
29315;BME280;16320;53.954;9.506;2023-06-26T07:32:25;100668.66;;;24.41;100.00
29315;BME280;16320;53.954;9.506;2023-06-26T07:35:30;100646.50;;;24.47;100.00
29315;BME280;16320;53.954;9.506;2023-06-26T07:38:35;100653.50;;;24.48;100.00
29315;BME280;16320;53.954;9.506;2023-06-26T07:41:39;100667.63;;;24.42;100.00
29315;BME280;16320;53.954;9.506;2023-06-26T07:44:44;100650.16;;;24.46;100.00
29315;BME280;16320;53.954;9.506;2023-06-26T07:47:49;100649.84;;;24.49;100.00
29315;BME280;16320;53.954;9.506;2023-06-26T07:50:54;100654.22;;;24.58;100.00
29315;BME280;16320;53.954;9.506;2023-06-26T07:54:00;100627.84;;;24.62;100.00
29315;BME280;16320;53.954;9.506;2023-06-26T07:57:06;100621.63;;;24.61;100.00
29315;BME280;16320;53.954;9.506;2023-06-26T08:00:11;100635.72;;;24.55;100.00
29315;BME280;16320;53.954;9.506;2023-06-26T08:03:16;100662.59;;;24.47;100.00
29315;BME280;16320;53.954;9.506;2023-06-26T08:06:37;100666.94;;;24.56;100.00
29315;BME280;16320;53.954;9.506;2023-06-26T08:09:44;100672.47;;;24.63;100.00
29315;BME280;16320;53.954;9.506;2023-06-26T08:12:48;100683.38;;;24.61;100.00
29315;BME280;16320;53.954;9.506;2023-06-26T08:15:54;100678.53;;;24.57;100.00
29315;BME280;16320;53.954;9.506;2023-06-26T08:18:59;100661.56;;;24.56;100.00
29315;BME280;16320;53.954;9.506;2023-06-26T08:22:04;100674.00;;;24.57;100.00
29315;BME280;16320;53.954;9.506;2023-06-26T08:25:08;100675.47;;;24.52;100.00
29315;BME280;16320;53.954;9.506;2023-06-26T08:28:15;100685.38;;;24.51;100.00
29315;BME280;16320;53.954;9.506;2023-06-26T08:31:20;100688.75;;;24.70;100.00
29315;BME280;16320;53.954;9.506;2023-06-26T08:34:25;100705.97;;;24.83;100.00
29315;BME280;16320;53.954;9.506;2023-06-26T08:37:30;100703.78;;;24.79;100.00
29315;BME280;16320;53.954;9.506;2023-06-26T08:40:37;100716.97;;;24.57;100.00
29315;BME280;16320;53.954;9.506;2023-06-26T08:43:43;100723.66;;;24.37;100.00
29315;BME280;16320;53.954;9.506;2023-06-26T08:46:47;100739.28;;;24.25;100.00
29315;BME280;16320;53.954;9.506;2023-06-26T08:50:08;100754.88;;;24.05;100.00
29315;BME280;16320;53.954;9.506;2023-06-26T08:53:39;100762.84;;;23.80;100.00
29315;BME280;16320;53.954;9.506;2023-06-26T08:56:47;100761.50;;;23.60;100.00
29315;BME280;16320;53.954;9.506;2023-06-26T08:59:55;100773.19;;;23.50;100.00
29315;BME280;16320;53.954;9.506;2023-06-26T09:03:01;100811.03;;;23.47;100.00
29315;BME280;16320;53.954;9.506;2023-06-26T09:09:39;100831.81;;;23.45;100.00
29315;BME280;16320;53.954;9.506;2023-06-26T09:12:47;100847.13;;;23.27;100.00
29315;BME280;16320;53.954;9.506;2023-06-26T09:15:54;100859.34;;;23.03;100.00
29315;BME280;16320;53.954;9.506;2023-06-26T09:19:00;100870.19;;;22.75;100.00
29315;BME280;16320;53.954;9.506;2023-06-26T09:22:12;100881.69;;;22.49;100.00
29315;BME280;16320;53.954;9.506;2023-06-26T09:25:20;100908.84;;;22.27;100.00
29315;BME280;16320;53.954;9.506;2023-06-26T09:28:26;100933.75;;;22.09;100.00
29315;BME280;16320;53.954;9.506;2023-06-26T09:31:33;100965.09;;;21.89;100.00
29315;BME280;16320;53.954;9.506;2023-06-26T09:34:45;100934.34;;;21.75;100.00
29315;BME280;16320;53.954;9.506;2023-06-26T09:37:49;100946.91;;;21.65;100.00
29315;BME280;16320;53.954;9.506;2023-06-26T09:40:54;100952.84;;;21.39;100.00
29315;BME280;16320;53.954;9.506;2023-06-26T09:44:02;100966.13;;;21.02;100.00
29315;BME280;16320;53.954;9.506;2023-06-26T09:47:07;101020.72;;;20.59;100.00
29315;BME280;16320;53.954;9.506;2023-06-26T09:50:22;101074.00;;;20.29;100.00
29315;BME280;16320;53.954;9.506;2023-06-26T09:53:26;101102.50;;;20.08;100.00
29315;BME280;16320;53.954;9.506;2023-06-26T09:56:33;101119.97;;;19.91;100.00
29315;BME280;16320;53.954;9.506;2023-06-26T09:59:38;101161.97;;;19.78;100.00
29315;BME280;16320;53.954;9.506;2023-06-26T10:02:43;101208.81;;;19.69;100.00
29315;BME280;16320;53.954;9.506;2023-06-26T10:05:50;101223.28;;;19.66;100.00
29315;BME280;16320;53.954;9.506;2023-06-26T10:08:56;101234.06;;;19.65;100.00
29315;BME280;16320;53.954;9.506;2023-06-26T10:12:18;101246.78;;;19.61;100.00
29315;BME280;16320;53.954;9.506;2023-06-26T10:15:24;101248.59;;;19.61;100.00
29315;BME280;16320;53.954;9.506;2023-06-26T10:18:31;101261.66;;;19.64;100.00
29315;BME280;16320;53.954;9.506;2023-06-26T10:21:38;101269.66;;;19.64;100.00
29315;BME280;16320;53.954;9.506;2023-06-26T10:24:45;101277.66;;;19.64;100.00
29315;BME280;16320;53.954;9.506;2023-06-26T10:27:58;101294.84;;;19.71;100.00
29315;BME280;16320;53.954;9.506;2023-06-26T10:31:07;101320.63;;;19.70;100.00
29315;BME280;16320;53.954;9.506;2023-06-26T10:34:13;101319.78;;;19.70;100.00
29315;BME280;16320;53.954;9.506;2023-06-26T10:37:18;101327.31;;;19.87;100.00
29315;BME280;16320;53.954;9.506;2023-06-26T10:40:27;101335.53;;;19.96;100.00
29315;BME280;16320;53.954;9.506;2023-06-26T10:43:32;101345.72;;;19.90;100.00
29315;BME280;16320;53.954;9.506;2023-06-26T10:46:54;101356.25;;;19.92;100.00
29315;BME280;16320;53.954;9.506;2023-06-26T10:50:29;101364.00;;;20.27;100.00
29315;BME280;16320;53.954;9.506;2023-06-26T10:53:40;101361.97;;;20.31;100.00
29315;BME280;16320;53.954;9.506;2023-06-26T10:56:50;101369.69;;;20.02;100.00
29315;BME280;16320;53.954;9.506;2023-06-26T11:00:09;101380.63;;;19.87;100.00
29315;BME280;16320;53.954;9.506;2023-06-26T11:03:23;101369.84;;;19.66;100.00
29315;BME280;16320;53.954;9.506;2023-06-26T11:06:30;101385.78;;;20.11;100.00
29315;BME280;16320;53.954;9.506;2023-06-26T11:10:00;101403.81;;;20.84;100.00
29315;BME280;16320;53.954;9.506;2023-06-26T11:13:06;101400.31;;;20.83;100.00
29315;BME280;16320;53.954;9.506;2023-06-26T11:16:12;101402.78;;;20.96;100.00
29315;BME280;16320;53.954;9.506;2023-06-26T11:19:21;101381.09;;;21.11;100.00
29315;BME280;16320;53.954;9.506;2023-06-26T11:22:31;101342.63;;;21.23;100.00
29315;BME280;16320;53.954;9.506;2023-06-26T11:25:37;101311.41;;;21.24;100.00
29315;BME280;16320;53.954;9.506;2023-06-26T11:28:51;101264.75;;;21.37;100.00
29315;BME280;16320;53.954;9.506;2023-06-26T11:32:01;101223.91;;;21.06;100.00
29315;BME280;16320;53.954;9.506;2023-06-26T11:35:09;101212.84;;;20.80;100.00
29315;BME280;16320;53.954;9.506;2023-06-26T11:38:13;101227.97;;;20.70;100.00
29315;BME280;16320;53.954;9.506;2023-06-26T11:41:18;101209.25;;;21.00;100.00
29315;BME280;16320;53.954;9.506;2023-06-26T11:44:24;101216.66;;;21.37;100.00
29315;BME280;16320;53.954;9.506;2023-06-26T11:47:29;101225.91;;;21.84;100.00
29315;BME280;16320;53.954;9.506;2023-06-26T11:50:38;101202.19;;;22.28;100.00
29315;BME280;16320;53.954;9.506;2023-06-26T11:53:45;101147.63;;;22.48;100.00
29315;BME280;16320;53.954;9.506;2023-06-26T11:56:55;101123.78;;;22.18;100.00
29315;BME280;16320;53.954;9.506;2023-06-26T12:00:16;101144.06;;;22.10;100.00
29315;BME280;16320;53.954;9.506;2023-06-26T12:03:21;101136.78;;;22.03;100.00
29315;BME280;16320;53.954;9.506;2023-06-26T12:06:27;101153.41;;;21.67;100.00
29315;BME280;16320;53.954;9.506;2023-06-26T12:09:33;101166.63;;;21.98;100.00
29315;BME280;16320;53.954;9.506;2023-06-26T12:12:39;101155.84;;;22.27;100.00
29315;BME280;16320;53.954;9.506;2023-06-26T12:15:44;101154.56;;;21.74;100.00
29315;BME280;16320;53.954;9.506;2023-06-26T12:18:48;101175.75;;;21.37;100.00
29315;BME280;16320;53.954;9.506;2023-06-26T12:21:54;101177.84;;;21.14;100.00
29315;BME280;16320;53.954;9.506;2023-06-26T12:25:01;101167.41;;;21.01;100.00
29315;BME280;16320;53.954;9.506;2023-06-26T12:28:18;101204.56;;;21.24;100.00
29315;BME280;16320;53.954;9.506;2023-06-26T12:31:23;101198.72;;;21.69;100.00
29315;BME280;16320;53.954;9.506;2023-06-26T12:34:35;101196.72;;;22.20;100.00
29315;BME280;16320;53.954;9.506;2023-06-26T12:37:42;101150.16;;;22.88;100.00
29315;BME280;16320;53.954;9.506;2023-06-26T12:40:48;101109.28;;;23.03;100.00
29315;BME280;16320;53.954;9.506;2023-06-26T12:43:57;101099.44;;;23.04;100.00
29315;BME280;16320;53.954;9.506;2023-06-26T12:47:03;101103.91;;;22.85;100.00
29315;BME280;16320;53.954;9.506;2023-06-26T12:50:08;101101.31;;;22.76;100.00
29315;BME280;16320;53.954;9.506;2023-06-26T12:53:36;101117.59;;;22.82;100.00
29315;BME280;16320;53.954;9.506;2023-06-26T12:56:41;101118.22;;;22.76;100.00
29315;BME280;16320;53.954;9.506;2023-06-26T12:59:47;101116.63;;;22.56;100.00
29315;BME280;16320;53.954;9.506;2023-06-26T13:02:51;101116.09;;;22.52;100.00
29315;BME280;16320;53.954;9.506;2023-06-26T13:05:57;101115.66;;;22.57;100.00
29315;BME280;16320;53.954;9.506;2023-06-26T13:09:01;101095.50;;;22.53;100.00
29315;BME280;16320;53.954;9.506;2023-06-26T13:12:12;101081.53;;;22.31;100.00
29315;BME280;16320;53.954;9.506;2023-06-26T13:15:17;101091.22;;;22.32;100.00
29315;BME280;16320;53.954;9.506;2023-06-26T13:18:21;101079.09;;;22.38;100.00
29315;BME280;16320;53.954;9.506;2023-06-26T13:21:27;101087.28;;;22.36;100.00
29315;BME280;16320;53.954;9.506;2023-06-26T13:24:32;101088.56;;;22.22;100.00
29315;BME280;16320;53.954;9.506;2023-06-26T13:27:38;101082.13;;;22.15;100.00
29315;BME280;16320;53.954;9.506;2023-06-26T13:30:43;101082.16;;;22.05;100.00
29315;BME280;16320;53.954;9.506;2023-06-26T13:33:48;101060.81;;;21.86;100.00
29315;BME280;16320;53.954;9.506;2023-06-26T13:36:59;101075.91;;;21.67;100.00
29315;BME280;16320;53.954;9.506;2023-06-26T13:40:07;101091.53;;;21.62;100.00
29315;BME280;16320;53.954;9.506;2023-06-26T13:43:14;101080.13;;;21.60;100.00
29315;BME280;16320;53.954;9.506;2023-06-26T13:46:19;101079.44;;;21.68;100.00
29315;BME280;16320;53.954;9.506;2023-06-26T13:49:24;101093.34;;;21.71;100.00
29315;BME280;16320;53.954;9.506;2023-06-26T13:52:28;101095.75;;;21.65;100.00
29315;BME280;16320;53.954;9.506;2023-06-26T13:55:34;101091.38;;;21.54;100.00
29315;BME280;16320;53.954;9.506;2023-06-26T13:58:39;101096.16;;;21.40;100.00
29315;BME280;16320;53.954;9.506;2023-06-26T14:01:43;101106.72;;;21.32;100.00
29315;BME280;16320;53.954;9.506;2023-06-26T14:04:48;101103.88;;;21.24;100.00
29315;BME280;16320;53.954;9.506;2023-06-26T14:07:53;101096.16;;;21.21;100.00
29315;BME280;16320;53.954;9.506;2023-06-26T14:11:01;101109.22;;;21.24;100.00
29315;BME280;16320;53.954;9.506;2023-06-26T14:14:05;101104.16;;;21.21;100.00
29315;BME280;16320;53.954;9.506;2023-06-26T14:17:09;101114.44;;;21.26;100.00
29315;BME280;16320;53.954;9.506;2023-06-26T14:20:21;101114.03;;;21.30;100.00
29315;BME280;16320;53.954;9.506;2023-06-26T14:23:26;101116.56;;;21.32;100.00
29315;BME280;16320;53.954;9.506;2023-06-26T14:26:30;101115.97;;;21.28;100.00
29315;BME280;16320;53.954;9.506;2023-06-26T14:29:37;101118.94;;;21.25;100.00
29315;BME280;16320;53.954;9.506;2023-06-26T14:32:41;101134.78;;;21.17;100.00
29315;BME280;16320;53.954;9.506;2023-06-26T14:35:46;101119.63;;;21.08;100.00
29315;BME280;16320;53.954;9.506;2023-06-26T14:38:50;101121.59;;;21.06;100.00
29315;BME280;16320;53.954;9.506;2023-06-26T14:41:55;101130.31;;;21.08;100.00
29315;BME280;16320;53.954;9.506;2023-06-26T14:45:01;101138.75;;;21.13;100.00
29315;BME280;16320;53.954;9.506;2023-06-26T14:48:07;101128.59;;;21.07;100.00
29315;BME280;16320;53.954;9.506;2023-06-26T14:51:13;101144.34;;;21.00;100.00
29315;BME280;16320;53.954;9.506;2023-06-26T14:54:18;101140.41;;;20.94;100.00
29315;BME280;16320;53.954;9.506;2023-06-26T14:57:22;101142.88;;;20.86;100.00
29315;BME280;16320;53.954;9.506;2023-06-26T15:00:26;101133.31;;;20.74;100.00
29315;BME280;16320;53.954;9.506;2023-06-26T15:03:31;101134.97;;;20.65;100.00
29315;BME280;16320;53.954;9.506;2023-06-26T15:06:37;101133.66;;;20.59;100.00
29315;BME280;16320;53.954;9.506;2023-06-26T15:09:42;101154.03;;;20.60;100.00
29315;BME280;16320;53.954;9.506;2023-06-26T15:12:46;101146.56;;;20.54;100.00
29315;BME280;16320;53.954;9.506;2023-06-26T15:15:51;101155.09;;;20.48;100.00
29315;BME280;16320;53.954;9.506;2023-06-26T15:18:55;101158.00;;;20.45;100.00
29315;BME280;16320;53.954;9.506;2023-06-26T15:22:00;101157.06;;;20.46;100.00
29315;BME280;16320;53.954;9.506;2023-06-26T15:25:06;101152.41;;;20.48;100.00
29315;BME280;16320;53.954;9.506;2023-06-26T15:28:12;101154.69;;;20.53;100.00
29315;BME280;16320;53.954;9.506;2023-06-26T15:31:17;101148.69;;;20.60;100.00
29315;BME280;16320;53.954;9.506;2023-06-26T15:34:22;101149.28;;;20.64;100.00
29315;BME280;16320;53.954;9.506;2023-06-26T15:37:27;101145.97;;;20.51;100.00
29315;BME280;16320;53.954;9.506;2023-06-26T15:40:31;101140.47;;;20.42;100.00
29315;BME280;16320;53.954;9.506;2023-06-26T15:43:36;101143.22;;;20.31;100.00
29315;BME280;16320;53.954;9.506;2023-06-26T15:46:40;101144.84;;;20.22;100.00
29315;BME280;16320;53.954;9.506;2023-06-26T15:49:44;101144.13;;;20.20;100.00
29315;BME280;16320;53.954;9.506;2023-06-26T15:52:49;101144.13;;;20.20;100.00
29315;BME280;16320;53.954;9.506;2023-06-26T15:55:53;101152.13;;;20.20;100.00
29315;BME280;16320;53.954;9.506;2023-06-26T15:58:58;101164.03;;;20.16;100.00
29315;BME280;16320;53.954;9.506;2023-06-26T16:02:03;101163.31;;;20.14;100.00
29315;BME280;16320;53.954;9.506;2023-06-26T16:05:08;101164.44;;;20.11;100.00
29315;BME280;16320;53.954;9.506;2023-06-26T16:08:13;101163.84;;;20.08;100.00